createdAt,value
2022-09-24T00:02:29.971Z,26.90
2022-09-24T00:07:36.481Z,25.87
2022-09-24T00:12:42.307Z,24.33
2022-09-24T00:17:47.564Z,31.77
2022-09-24T00:22:53.255Z,29.03
2022-09-24T00:27:59.720Z,27.83
2022-09-24T00:33:04.987Z,29.50
2022-09-24T00:38:10.871Z,31.27
2022-09-24T00:43:36.648Z,29.43
2022-09-24T00:48:44.360Z,27.60
2022-09-24T00:53:52.384Z,26.33
2022-09-24T00:59:01.966Z,28.17
2022-09-24T01:04:08.425Z,28.77
2022-09-24T01:09:13.680Z,27.07
2022-09-24T01:14:40.025Z,31.20
2022-09-24T01:20:00.106Z,30.70
2022-09-24T01:25:41.331Z,27.03
2022-09-24T01:30:48.302Z,26.50
2022-09-24T01:35:56.525Z,26.23
2022-09-24T01:41:04.854Z,28.70
2022-09-24T01:46:12.574Z,27.67
2022-09-24T01:51:29.694Z,32.50
2022-09-24T01:56:41.184Z,33.30
2022-09-24T02:01:58.420Z,31.57
2022-09-24T02:07:11.076Z,31.57
2022-09-24T02:12:26.822Z,31.77
2022-09-24T02:17:35.037Z,30.37
2022-09-24T02:22:42.725Z,28.53
2022-09-24T02:27:48.646Z,31.20
2022-09-24T02:32:56.905Z,25.97
2022-09-24T02:38:06.248Z,33.07
2022-09-24T02:43:10.730Z,29.83
2022-09-24T02:48:17.014Z,34.80
2022-09-24T02:53:22.326Z,30.73
2022-09-24T02:58:29.770Z,31.90
2022-09-24T03:03:35.147Z,27.93
2022-09-24T03:08:41.678Z,28.43
2022-09-24T03:13:46.946Z,30.63
2022-09-24T03:18:52.302Z,30.03
2022-09-24T03:23:57.623Z,30.00
2022-09-24T03:29:02.932Z,27.20
2022-09-24T03:34:08.374Z,29.23
2022-09-24T03:39:13.672Z,30.80
2022-09-24T03:44:19.618Z,30.53
2022-09-24T03:49:27.637Z,29.40
2022-09-24T03:54:33.180Z,26.67
2022-09-24T03:59:39.415Z,38.83
2022-09-24T04:04:44.613Z,29.90
2022-09-24T04:09:49.901Z,36.90
2022-09-24T04:14:55.151Z,30.50
2022-09-24T04:20:00.425Z,26.17
2022-09-24T04:25:10.274Z,28.43
2022-09-24T04:30:15.478Z,34.30
2022-09-24T04:35:23.549Z,34.80
2022-09-24T04:40:30.216Z,34.87
2022-09-24T04:45:35.680Z,33.93
2022-09-24T04:50:45.820Z,30.60
2022-09-24T04:55:47.822Z,35.83
2022-09-24T05:00:53.857Z,30.70
2022-09-24T05:06:00.799Z,33.57
2022-09-24T05:11:06.261Z,30.40
2022-09-24T05:16:12.092Z,28.60
2022-09-24T05:21:17.496Z,27.10
2022-09-24T05:26:41.127Z,33.43
2022-09-24T05:31:46.460Z,26.43
2022-09-24T05:36:51.780Z,32.30
2022-09-24T05:41:58.471Z,24.73
2022-09-24T05:47:04.398Z,30.00
2022-09-24T05:52:10.163Z,29.20
2022-09-24T05:57:16.129Z,26.23
2022-09-24T06:02:21.486Z,30.70
2022-09-24T06:07:31.193Z,30.73
2022-09-24T06:12:38.235Z,36.17
2022-09-24T06:17:43.576Z,28.63
2022-09-24T06:22:50.087Z,33.03
2022-09-24T06:27:58.720Z,25.60
2022-09-24T06:33:07.272Z,24.70
2022-09-24T06:38:15.489Z,30.27
2022-09-24T06:43:21.243Z,22.60
2022-09-24T06:48:28.070Z,20.87
2022-09-24T06:53:33.526Z,30.43
2022-09-24T06:58:38.797Z,25.17
2022-09-24T07:03:46.301Z,22.60
2022-09-24T07:08:56.149Z,26.90
2022-09-24T07:14:01.572Z,23.83
2022-09-24T07:19:07.472Z,27.03
2022-09-24T07:24:13.021Z,27.10
2022-09-24T07:29:21.137Z,24.13
2022-09-24T07:34:26.496Z,23.17
2022-09-24T07:39:33.242Z,22.53
2022-09-24T07:44:38.613Z,23.03
2022-09-24T07:49:51.895Z,21.80
2022-09-24T07:55:00.669Z,20.67
2022-09-24T08:00:08.209Z,23.37
2022-09-24T08:05:15.509Z,19.87
2022-09-24T08:10:21.172Z,23.77
2022-09-24T08:15:26.826Z,20.37
2022-09-24T08:20:33.734Z,20.93
2022-09-24T08:25:39.302Z,19.40
2022-09-24T08:30:46.102Z,23.47
2022-09-24T08:35:52.653Z,18.20
2022-09-24T08:41:18.950Z,20.33
2022-09-24T08:46:57.371Z,16.57
2022-09-24T08:52:22.899Z,17.90
2022-09-24T08:57:29.670Z,14.47
2022-09-24T09:02:56.279Z,15.43
2022-09-24T09:08:33.779Z,17.43
2022-09-24T09:13:26.883Z,19.90
2022-09-24T09:18:46.134Z,18.80
2022-09-24T09:23:55.478Z,16.93
2022-09-24T09:29:13.294Z,21.23
2022-09-24T09:34:31.656Z,15.60
2022-09-24T09:39:58.404Z,17.73
2022-09-24T09:45:11.134Z,11.93
2022-09-24T09:50:37.408Z,12.87
2022-09-24T09:55:43.294Z,9.97
2022-09-24T10:00:50.003Z,9.97
2022-09-24T10:06:06.862Z,9.10
2022-09-24T10:11:25.532Z,11.53
2022-09-24T10:16:31.787Z,12.00
2022-09-24T10:21:40.752Z,9.77
2022-09-24T10:26:48.322Z,10.17
2022-09-24T10:31:55.662Z,9.33
2022-09-24T10:37:11.030Z,8.53
2022-09-24T10:42:30.552Z,12.53
2022-09-24T10:47:44.766Z,7.73
2022-09-24T10:52:55.997Z,8.67
2022-09-24T10:58:39.369Z,7.20
2022-09-24T11:04:09.004Z,6.37
2022-09-24T11:09:25.054Z,6.03
2022-09-24T11:14:36.908Z,4.23
2022-09-24T11:20:19.381Z,3.63
2022-09-24T11:25:55.083Z,3.03
2022-09-24T11:31:21.895Z,5.23
2022-09-24T11:37:07.661Z,2.83
2022-09-24T11:42:38.399Z,5.00
2022-09-24T11:48:01.987Z,3.67
2022-09-24T11:53:26.286Z,2.87
2022-09-24T11:58:34.443Z,3.50
2022-09-24T12:04:11.572Z,3.13
2022-09-24T12:09:36.995Z,4.40
2022-09-24T12:15:22.766Z,3.43
2022-09-24T12:21:02.603Z,11.13
2022-09-24T12:32:22.362Z,9.77
2022-09-24T12:37:46.631Z,4.83
2022-09-24T12:43:14.924Z,4.70
2022-09-24T12:48:57.258Z,3.90
2022-09-24T12:54:35.109Z,2.93
2022-09-24T12:59:57.030Z,4.47
2022-09-24T13:05:08.466Z,3.23
2022-09-24T13:10:50.443Z,6.20
2022-09-24T13:16:17.699Z,5.13
2022-09-24T13:21:30.167Z,6.33
2022-09-24T13:32:16.808Z,4.87
2022-09-24T13:37:34.627Z,3.10
2022-09-24T13:43:08.243Z,6.80
2022-09-24T13:48:41.115Z,3.30
2022-09-24T13:54:11.065Z,5.50
2022-09-24T13:59:24.367Z,2.60
2022-09-24T14:04:30.229Z,4.13
2022-09-24T14:09:43.470Z,4.57
2022-09-24T14:15:01.442Z,6.17
2022-09-24T14:20:08.713Z,5.13
2022-09-24T14:25:23.968Z,5.13
2022-09-24T14:30:35.642Z,6.83
2022-09-24T14:35:49.299Z,12.20
2022-09-24T14:41:09.337Z,4.67
2022-09-24T14:46:28.050Z,7.63
2022-09-24T14:51:33.556Z,11.23
2022-09-24T14:56:43.940Z,8.33
2022-09-24T15:01:51.846Z,14.00
2022-09-24T15:07:03.071Z,8.03
2022-09-24T15:17:56.951Z,8.10
2022-09-24T15:23:08.296Z,11.73
2022-09-24T15:28:22.294Z,6.80
2022-09-24T15:33:34.482Z,10.33
2022-09-24T15:38:41.595Z,13.10
2022-09-24T15:43:55.790Z,7.73
2022-09-24T15:49:10.776Z,7.37
2022-09-24T15:54:16.314Z,4.93
2022-09-24T15:59:25.378Z,14.50
2022-09-24T16:04:31.326Z,59.77
2022-09-24T16:09:38.602Z,42.10
2022-09-24T16:14:46.264Z,18.63
2022-09-24T16:19:55.921Z,16.07
2022-09-24T16:25:01.584Z,16.37
2022-09-24T16:30:09.583Z,8.03
2022-09-24T16:35:19.033Z,9.33
2022-09-24T16:40:28.374Z,8.90
2022-09-24T16:45:34.764Z,6.63
2022-09-24T16:50:40.219Z,15.47
2022-09-24T16:55:45.911Z,8.63
2022-09-24T17:00:57.102Z,16.53
2022-09-24T17:06:09.272Z,18.57
2022-09-24T17:11:14.980Z,18.70
2022-09-24T17:16:20.985Z,23.17
2022-09-24T17:21:31.114Z,23.60
2022-09-24T17:26:50.416Z,22.07
2022-09-24T17:31:58.062Z,28.90
2022-09-24T17:37:03.519Z,25.87
2022-09-24T17:42:10.100Z,40.63
2022-09-24T17:47:15.413Z,48.20
2022-09-24T17:52:22.041Z,50.27
2022-09-24T17:57:32.338Z,52.73
2022-09-24T18:02:45.601Z,45.77
2022-09-24T18:07:57.138Z,33.53
2022-09-24T18:13:02.610Z,29.73
2022-09-24T18:18:27.538Z,33.97
2022-09-24T18:23:35.530Z,29.63
2022-09-24T18:28:42.448Z,24.43
2022-09-24T18:33:49.769Z,17.63
2022-09-24T18:38:55.869Z,11.70
2022-09-24T18:44:01.599Z,12.53
2022-09-24T18:49:08.181Z,14.87
2022-09-24T18:54:17.933Z,12.90
2022-09-24T18:59:24.139Z,12.03
2022-09-24T19:04:32.538Z,12.37
2022-09-24T19:09:37.953Z,21.10
2022-09-24T19:14:43.265Z,20.20
2022-09-24T19:19:52.398Z,29.07
2022-09-24T19:24:55.999Z,33.47
2022-09-24T19:30:10.662Z,24.90
2022-09-24T19:35:16.056Z,22.93
2022-09-24T19:40:21.568Z,26.53
2022-09-24T19:45:27.152Z,27.97
2022-09-24T19:50:40.391Z,27.07
2022-09-24T19:55:45.680Z,23.10
2022-09-24T20:00:50.962Z,23.13
2022-09-24T20:05:58.208Z,23.23
2022-09-24T20:11:08.432Z,23.43
2022-09-24T20:16:15.590Z,23.07
2022-09-24T20:21:21.710Z,22.93
2022-09-24T20:26:46.385Z,17.67
2022-09-24T20:31:55.562Z,34.03
2022-09-24T20:37:06.668Z,25.80
2022-09-24T20:42:12.148Z,24.43
2022-09-24T20:47:17.461Z,28.83
2022-09-24T20:52:23.147Z,38.13
2022-09-24T20:57:29.486Z,31.13
2022-09-24T21:02:37.921Z,35.80
2022-09-24T21:07:42.899Z,35.77
2022-09-24T21:12:50.966Z,29.90
2022-09-24T21:18:21.188Z,36.93
2022-09-24T21:23:02.573Z,34.83
2022-09-24T21:28:09.483Z,32.60
2022-09-24T21:33:14.781Z,32.40
2022-09-24T21:38:19.979Z,29.83
2022-09-24T21:43:29.732Z,36.70
2022-09-24T21:48:34.316Z,27.80
2022-09-24T21:53:39.592Z,33.60
2022-09-24T21:58:46.249Z,24.90
2022-09-24T22:03:56.759Z,30.73
2022-09-24T22:09:07.340Z,29.33
2022-09-24T22:14:13.419Z,35.30
2022-09-24T22:19:18.916Z,37.03
2022-09-24T22:24:24.655Z,33.97
2022-09-24T22:29:30.732Z,39.23
2022-09-24T22:34:53.742Z,33.17
2022-09-24T22:39:58.972Z,33.57
2022-09-24T22:45:04.536Z,29.90
2022-09-24T22:50:10.342Z,33.73
2022-09-24T22:55:15.723Z,30.17
2022-09-24T23:00:22.373Z,32.03
2022-09-24T23:05:29.214Z,32.63
2022-09-24T23:10:34.526Z,35.50
2022-09-24T23:15:39.671Z,31.67
2022-09-24T23:20:46.189Z,39.03
2022-09-24T23:25:53.419Z,34.93
2022-09-24T23:31:01.012Z,35.13
2022-09-24T23:36:09.398Z,41.10
2022-09-24T23:41:16.077Z,28.43
2022-09-24T23:46:21.783Z,37.03
2022-09-24T23:51:27.150Z,37.73
2022-09-24T23:56:34.855Z,38.03
